createdAt,value
2022-12-03T00:00:16.972Z,0.40
2022-12-03T02:13:57.199Z,0.10
2022-12-03T02:15:59.212Z,0.00
2022-12-03T02:18:01.113Z,0.00
2022-12-03T02:20:05.677Z,0.00
2022-12-03T02:22:19.158Z,-0.10
2022-12-03T02:24:29.875Z,0.10
2022-12-03T02:26:31.946Z,0.00
2022-12-03T02:28:33.880Z,-0.10
2022-12-03T02:30:36.227Z,-0.10
2022-12-03T02:32:38.243Z,-0.10
2022-12-03T02:34:44.356Z,-0.10
2022-12-03T02:36:46.183Z,-0.10
2022-12-03T02:38:49.495Z,-0.10
2022-12-03T02:40:54.849Z,-0.10
2022-12-03T02:42:59.730Z,-0.10
2022-12-03T02:45:15.180Z,-0.10
2022-12-03T02:47:17.860Z,-0.10
2022-12-03T02:49:19.730Z,-0.20
2022-12-03T02:51:21.661Z,-0.10
2022-12-03T02:53:24.852Z,-0.20
2022-12-03T02:55:33.315Z,-0.10
2022-12-03T02:57:39.917Z,-0.10
2022-12-03T02:59:42.254Z,-0.10
2022-12-03T03:01:44.214Z,-0.10
2022-12-03T03:03:47.230Z,-0.10
2022-12-03T03:05:50.320Z,-0.10
2022-12-03T03:07:52.428Z,-0.10
2022-12-03T03:09:54.400Z,-0.10
2022-12-03T03:11:56.108Z,-0.10
2022-12-03T03:13:57.961Z,-0.10
2022-12-03T03:16:00.050Z,0.00
2022-12-03T03:18:02.131Z,0.00
2022-12-03T03:20:04.509Z,-0.10
2022-12-03T03:22:06.285Z,-0.20
2022-12-03T03:24:08.275Z,-0.20
2022-12-03T03:26:11.504Z,-0.20
2022-12-03T03:28:14.836Z,-0.20
2022-12-03T03:30:16.979Z,-0.10
2022-12-03T03:32:18.871Z,-0.20
2022-12-03T03:34:20.872Z,-0.20
2022-12-03T03:36:22.899Z,-0.10
2022-12-03T03:38:24.959Z,-0.10
2022-12-03T03:40:27.164Z,-0.20
2022-12-03T03:42:29.120Z,-0.20
2022-12-03T03:44:31.670Z,-0.20
2022-12-03T03:46:34.102Z,-0.20
2022-12-03T03:48:36.224Z,-0.20
2022-12-03T03:50:38.167Z,-0.20
2022-12-03T03:52:40.365Z,-0.10
2022-12-03T03:54:42.264Z,-0.20
2022-12-03T03:56:44.180Z,-0.20
2022-12-03T03:58:46.351Z,-0.20
2022-12-03T04:00:48.502Z,-0.20
2022-12-03T04:02:50.373Z,-0.20
2022-12-03T04:04:52.763Z,-0.20
2022-12-03T04:06:54.879Z,-0.20
2022-12-03T04:08:56.968Z,-0.20
2022-12-03T04:11:17.215Z,-0.10
2022-12-03T04:13:19.155Z,-0.20
2022-12-03T04:15:21.017Z,-0.20
2022-12-03T04:17:22.941Z,-0.30
2022-12-03T04:19:24.817Z,-0.20
2022-12-03T04:21:45.056Z,-0.20
2022-12-03T04:23:46.905Z,-0.30
2022-12-03T04:26:07.174Z,-0.30
2022-12-03T04:28:28.117Z,-0.30
2022-12-03T04:30:30.167Z,-0.30
2022-12-03T04:33:04.032Z,-0.40
2022-12-03T04:35:24.724Z,-0.40
2022-12-03T04:37:26.686Z,-0.30
2022-12-03T04:39:28.460Z,-0.30
2022-12-03T04:41:30.385Z,-0.30
2022-12-03T04:43:33.893Z,-0.40
2022-12-03T04:45:35.820Z,-0.30
2022-12-03T04:47:40.041Z,-0.40
2022-12-03T04:49:44.923Z,-0.40
2022-12-03T04:51:46.779Z,-0.40
2022-12-03T04:53:48.600Z,-0.40
2022-12-03T04:55:50.442Z,-0.40
2022-12-03T04:57:52.800Z,-0.40
2022-12-03T04:59:54.651Z,-0.50
2022-12-03T05:01:56.520Z,-0.50
2022-12-03T05:03:58.398Z,-0.50
2022-12-03T05:06:00.209Z,-0.50
2022-12-03T05:08:02.127Z,-0.40
2022-12-03T05:10:04.749Z,-0.50
2022-12-03T05:12:06.760Z,-0.50
2022-12-03T05:14:08.748Z,-0.40
2022-12-03T05:16:10.690Z,-0.40
2022-12-03T05:18:12.434Z,-0.40
2022-12-03T05:20:33.237Z,-0.40
2022-12-03T05:22:35.150Z,-0.50
2022-12-03T05:24:36.846Z,-0.40
2022-12-03T05:26:38.700Z,-0.40
2022-12-03T05:28:40.558Z,-0.40
2022-12-03T05:30:42.600Z,-0.40
2022-12-03T05:32:44.465Z,-0.30
2022-12-03T05:34:46.290Z,-0.40
2022-12-03T05:36:48.142Z,-0.40
2022-12-03T05:38:49.993Z,-0.40
2022-12-03T05:40:51.814Z,-0.40
2022-12-03T05:42:53.655Z,-0.40
2022-12-03T05:44:55.761Z,-0.40
2022-12-03T05:46:57.787Z,-0.40
2022-12-03T05:48:59.656Z,-0.40
2022-12-03T05:51:01.550Z,-0.40
2022-12-03T05:53:04.282Z,-0.40
2022-12-03T05:55:07.145Z,-0.50
2022-12-03T05:57:09.007Z,-0.50
2022-12-03T05:59:10.828Z,-0.50
2022-12-03T06:01:12.660Z,-0.60
2022-12-03T08:14:53.067Z,-1.40
2022-12-03T08:16:55.107Z,-1.70
2022-12-03T08:18:57.624Z,-1.80
2022-12-03T08:20:59.549Z,-1.70
2022-12-03T08:23:03.714Z,-1.90
2022-12-03T08:25:27.524Z,-1.70
2022-12-03T08:27:30.099Z,-1.70
2022-12-03T08:29:32.009Z,-1.90
2022-12-03T08:31:34.004Z,-2.00
2022-12-03T08:33:37.182Z,-2.10
2022-12-03T08:35:40.996Z,-1.90
2022-12-03T08:37:42.896Z,-2.10
2022-12-03T08:39:46.520Z,-2.00
2022-12-03T08:42:38.675Z,-2.00
2022-12-03T08:44:41.241Z,-1.90
2022-12-03T08:46:43.155Z,-1.80
2022-12-03T08:48:49.211Z,-2.00
2022-12-03T08:50:52.002Z,-1.90
2022-12-03T08:52:57.873Z,-1.60
2022-12-03T08:55:03.513Z,-1.60
2022-12-03T08:57:27.354Z,-1.50
2022-12-03T08:59:32.157Z,-1.60
2022-12-03T09:01:43.747Z,-1.50
2022-12-03T09:03:54.663Z,-1.70
2022-12-03T09:05:56.723Z,-1.60
2022-12-03T09:07:58.631Z,-1.80
2022-12-03T09:10:00.501Z,-1.70
2022-12-03T09:12:02.483Z,-1.50
2022-12-03T09:14:05.064Z,-1.60
2022-12-03T09:16:07.752Z,-1.50
2022-12-03T09:18:09.807Z,-1.50
2022-12-03T09:20:11.919Z,-1.50
2022-12-03T09:22:15.430Z,-1.30
2022-12-03T09:24:17.319Z,-1.40
2022-12-03T09:26:19.077Z,-1.50
2022-12-03T09:28:21.148Z,-1.50
2022-12-03T09:30:23.329Z,-1.50
2022-12-03T09:32:25.605Z,-1.50
2022-12-03T09:34:27.593Z,-1.50
2022-12-03T09:36:29.791Z,-1.60
2022-12-03T09:38:31.719Z,-1.50
2022-12-03T09:40:34.077Z,-1.60
2022-12-03T09:42:36.479Z,-1.40
2022-12-03T09:44:38.747Z,-1.30
2022-12-03T09:46:41.916Z,-1.30
2022-12-03T09:48:43.857Z,-1.00
2022-12-03T09:50:45.798Z,-1.20
2022-12-03T09:52:50.030Z,-1.30
2022-12-03T09:54:52.096Z,-1.40
2022-12-03T09:56:56.558Z,-1.20
2022-12-03T09:58:58.522Z,-1.10
2022-12-03T10:01:00.360Z,-1.10
2022-12-03T10:03:04.488Z,-1.10
2022-12-03T10:05:06.587Z,-1.00
2022-12-03T10:07:10.090Z,-1.10
2022-12-03T10:09:14.650Z,-1.30
2022-12-03T10:11:18.510Z,-1.20
2022-12-03T10:13:29.620Z,-1.20
2022-12-03T10:15:32.550Z,-1.10
2022-12-03T10:17:34.492Z,-1.00
2022-12-03T10:19:37.672Z,-0.80
2022-12-03T10:21:39.529Z,-0.80
2022-12-03T10:23:41.503Z,-1.00
2022-12-03T10:25:54.145Z,-0.90
2022-12-03T10:28:02.797Z,-1.10
2022-12-03T10:30:14.716Z,-0.90
2022-12-03T10:32:16.623Z,-1.00
2022-12-03T10:34:32.886Z,-0.90
2022-12-03T10:36:34.858Z,-0.70
2022-12-03T10:38:36.789Z,-0.90
2022-12-03T10:40:39.585Z,-0.80
2022-12-03T10:42:41.664Z,-0.60
2022-12-03T10:44:43.555Z,-0.40
2022-12-03T10:46:46.451Z,-0.50
2022-12-03T10:49:20.988Z,-0.40
2022-12-03T10:51:22.975Z,-0.40
2022-12-03T10:53:29.596Z,-0.50
2022-12-03T10:55:38.558Z,-0.60
2022-12-03T10:57:45.271Z,-0.50
2022-12-03T10:59:47.689Z,-0.60
2022-12-03T11:01:50.355Z,-0.40
2022-12-03T11:03:54.095Z,-0.20
2022-12-03T11:05:57.868Z,-0.30
2022-12-03T11:07:59.847Z,-0.50
2022-12-03T11:10:02.822Z,-0.40
2022-12-03T11:12:17.796Z,-0.30
2022-12-03T11:14:54.509Z,-0.20
2022-12-03T11:16:56.607Z,-0.30
2022-12-03T11:19:00.383Z,-0.30
2022-12-03T11:21:04.055Z,-0.30
2022-12-03T11:23:10.931Z,-0.20
2022-12-03T11:25:24.995Z,0.00
2022-12-03T11:27:26.970Z,-0.10
2022-12-03T11:29:47.753Z,0.00
2022-12-03T11:31:49.782Z,0.00
2022-12-03T11:34:20.713Z,0.00
2022-12-03T11:36:42.139Z,0.00
2022-12-03T11:38:52.960Z,0.00
2022-12-03T11:41:08.641Z,-0.10
2022-12-03T11:43:11.097Z,0.10
2022-12-03T11:45:33.463Z,0.10
2022-12-03T11:47:43.202Z,0.20
2022-12-03T11:49:47.370Z,0.20
2022-12-03T11:51:49.745Z,0.30
2022-12-03T11:53:54.566Z,0.30
2022-12-03T11:56:09.063Z,0.50
2022-12-03T11:58:34.386Z,0.70
2022-12-03T12:00:36.516Z,0.60
2022-12-03T14:15:01.852Z,0.10
2022-12-03T14:17:04.653Z,0.10
2022-12-03T14:19:06.785Z,0.10
2022-12-03T14:21:08.550Z,0.10
2022-12-03T14:23:10.440Z,0.10
2022-12-03T14:25:12.261Z,0.10
2022-12-03T14:27:14.160Z,0.10
2022-12-03T14:29:16.027Z,0.10
2022-12-03T14:31:17.987Z,0.10
2022-12-03T14:33:19.806Z,0.10
2022-12-03T14:35:21.682Z,0.10
2022-12-03T14:37:23.545Z,0.20
2022-12-03T14:39:25.481Z,0.10
2022-12-03T14:41:45.889Z,0.10
2022-12-03T14:43:47.769Z,0.00
2022-12-03T14:45:49.877Z,0.00
2022-12-03T14:47:51.987Z,0.00
2022-12-03T14:49:54.185Z,0.00
2022-12-03T14:51:56.492Z,0.00
2022-12-03T14:53:58.405Z,0.00
2022-12-03T14:56:00.279Z,0.00
2022-12-03T14:58:02.319Z,0.00
2022-12-03T15:00:05.549Z,0.00
2022-12-03T15:02:08.112Z,-0.10
2022-12-03T15:04:11.170Z,-0.10
2022-12-03T15:06:12.983Z,-0.10
2022-12-03T15:08:14.889Z,-0.10
2022-12-03T15:10:16.941Z,-0.10
2022-12-03T15:12:18.712Z,-0.10
2022-12-03T15:14:20.635Z,-0.10
2022-12-03T15:16:22.766Z,-0.20
2022-12-03T15:18:24.664Z,-0.20
2022-12-03T15:20:26.512Z,-0.10
2022-12-03T15:22:28.411Z,-0.20
2022-12-03T15:24:30.422Z,-0.30
2022-12-03T15:26:32.341Z,-0.30
2022-12-03T15:28:34.284Z,-0.40
2022-12-03T15:30:36.082Z,-0.50
2022-12-03T15:32:37.926Z,-0.40
2022-12-03T15:34:39.822Z,-0.50
2022-12-03T15:36:41.695Z,-0.50
2022-12-03T15:38:43.556Z,-0.50
2022-12-03T15:40:48.255Z,-0.60
2022-12-03T15:42:51.057Z,-0.70
2022-12-03T15:44:53.057Z,-0.70
2022-12-03T15:46:55.158Z,-0.80
2022-12-03T15:48:57.653Z,-0.80
2022-12-03T15:50:59.482Z,-0.80
2022-12-03T15:53:13.920Z,-0.90
2022-12-03T15:55:22.126Z,-0.90
2022-12-03T15:57:36.059Z,-0.90
2022-12-03T15:59:38.126Z,-1.00
2022-12-03T16:01:40.094Z,-1.00
2022-12-03T16:03:42.135Z,-1.00
2022-12-03T16:05:44.072Z,-1.00
2022-12-03T16:07:46.217Z,-1.00
2022-12-03T16:09:48.323Z,-1.00
2022-12-03T16:11:50.219Z,-1.00
2022-12-03T16:13:52.071Z,-1.10
2022-12-03T16:15:54.053Z,-1.10
2022-12-03T16:17:55.920Z,-1.20
2022-12-03T16:19:57.866Z,-1.20
2022-12-03T16:21:59.616Z,-1.20
2022-12-03T16:24:01.781Z,-1.30
2022-12-03T16:26:03.745Z,-1.30
2022-12-03T16:28:13.881Z,-1.40
2022-12-03T16:30:16.235Z,-1.40
2022-12-03T16:32:18.184Z,-1.50
2022-12-03T16:34:19.991Z,-1.60
2022-12-03T16:36:21.953Z,-1.70
2022-12-03T16:38:23.692Z,-1.70
2022-12-03T16:40:34.524Z,-1.80
2022-12-03T16:42:37.393Z,-1.80
2022-12-03T16:45:11.950Z,-1.90
2022-12-03T16:47:13.814Z,-1.90
2022-12-03T16:49:15.770Z,-2.00
2022-12-03T16:51:19.396Z,-2.10
2022-12-03T16:53:21.341Z,-2.10
2022-12-03T16:57:48.082Z,-2.10
2022-12-03T16:59:49.875Z,-2.00
2022-12-03T17:01:51.924Z,-2.00
2022-12-03T17:03:53.812Z,-2.00
2022-12-03T17:05:55.757Z,-2.10
2022-12-03T17:07:57.743Z,-2.10
2022-12-03T17:09:59.656Z,-2.20
2022-12-03T17:12:01.413Z,-2.20
2022-12-03T17:14:03.328Z,-2.30
2022-12-03T17:16:06.874Z,-2.30
2022-12-03T17:18:09.166Z,-2.20
2022-12-03T17:20:12.696Z,-2.40
2022-12-03T17:22:14.680Z,-2.40
2022-12-03T17:24:16.394Z,-2.50
2022-12-03T17:26:21.335Z,-2.50
2022-12-03T17:28:24.769Z,-2.60
2022-12-03T17:30:26.983Z,-2.60
2022-12-03T17:32:29.158Z,-2.50
2022-12-03T17:34:31.083Z,-2.50
2022-12-03T17:36:32.851Z,-2.60
2022-12-03T17:38:39.081Z,-2.60
2022-12-03T17:40:41.162Z,-2.60
2022-12-03T17:42:43.294Z,-2.60
2022-12-03T17:44:45.181Z,-2.60
2022-12-03T17:46:47.056Z,-2.60
2022-12-03T17:48:49.568Z,-2.70
2022-12-03T17:50:51.550Z,-2.60
2022-12-03T17:52:53.497Z,-2.60
2022-12-03T17:55:10.394Z,-2.60
2022-12-03T17:57:13.393Z,-2.60
2022-12-03T17:59:15.795Z,-2.70
2022-12-03T18:01:17.810Z,-2.70
2022-12-03T20:14:18.050Z,-3.80
2022-12-03T20:16:20.582Z,-3.70
2022-12-03T20:18:22.516Z,-3.80
2022-12-03T20:20:24.540Z,-3.90
2022-12-03T20:22:26.547Z,-4.00
2022-12-03T20:24:28.333Z,-3.90
2022-12-03T20:26:30.487Z,-3.90
2022-12-03T20:28:32.323Z,-3.80
2022-12-03T20:30:34.167Z,-3.80
2022-12-03T20:32:39.413Z,-4.00
2022-12-03T20:34:45.833Z,-3.90
2022-12-03T20:36:47.732Z,-3.90
2022-12-03T20:38:53.491Z,-3.80
2022-12-03T20:40:55.348Z,-3.90
2022-12-03T20:42:57.066Z,-3.90
2022-12-03T20:44:59.039Z,-3.90
2022-12-03T20:47:01.074Z,-4.00
2022-12-03T20:49:03.120Z,-4.00
2022-12-03T20:51:11.163Z,-4.00
2022-12-03T20:53:27.456Z,-4.00
2022-12-03T20:55:31.029Z,-3.90
2022-12-03T20:57:32.919Z,-3.90
2022-12-03T20:59:34.686Z,-4.00
2022-12-03T21:01:38.496Z,-4.00
2022-12-03T21:03:40.606Z,-4.00
2022-12-03T21:05:45.454Z,-4.00
2022-12-03T21:07:48.399Z,-4.00
2022-12-03T21:09:50.811Z,-4.00
2022-12-03T21:11:54.905Z,-4.00
2022-12-03T21:14:01.483Z,-4.00
2022-12-03T21:16:09.342Z,-4.00
2022-12-03T21:18:14.451Z,-4.10
2022-12-03T21:20:20.810Z,-4.10
2022-12-03T21:22:27.006Z,-4.10
2022-12-03T21:24:30.341Z,-4.10
2022-12-03T21:26:33.382Z,-4.20
2022-12-03T21:28:37.967Z,-4.20
2022-12-03T21:30:42.258Z,-4.20
2022-12-03T21:32:44.256Z,-4.20
2022-12-03T21:34:46.630Z,-4.20
2022-12-03T21:36:48.706Z,-4.20
2022-12-03T21:38:50.568Z,-4.10
2022-12-03T21:40:52.696Z,-4.20
2022-12-03T21:42:54.573Z,-4.30
2022-12-03T21:44:56.312Z,-4.20
2022-12-03T21:47:09.833Z,-4.10
2022-12-03T21:49:16.852Z,-4.20
2022-12-03T21:51:19.380Z,-4.30
2022-12-03T21:53:21.382Z,-4.30
2022-12-03T21:55:23.411Z,-4.30
2022-12-03T21:57:25.263Z,-4.20
2022-12-03T21:59:27.091Z,-4.30
2022-12-03T22:01:29.069Z,-4.20
2022-12-03T22:03:31.163Z,-4.20
2022-12-03T22:05:33.049Z,-4.20
2022-12-03T22:07:35.590Z,-4.20
2022-12-03T22:09:37.677Z,-4.20
2022-12-03T22:11:39.607Z,-4.10
2022-12-03T22:13:41.744Z,-4.10
2022-12-03T22:15:43.703Z,-4.10
2022-12-03T22:17:45.677Z,-4.20
2022-12-03T22:19:47.563Z,-4.10
2022-12-03T22:21:49.352Z,-4.20
2022-12-03T22:23:51.650Z,-4.10
2022-12-03T22:26:06.559Z,-4.10
2022-12-03T22:28:08.454Z,-4.20
2022-12-03T22:30:10.409Z,-4.30
2022-12-03T22:32:12.396Z,-4.10
2022-12-03T22:34:14.260Z,-4.30
2022-12-03T22:36:20.912Z,-4.40
2022-12-03T22:38:24.408Z,-4.40
2022-12-03T22:40:26.256Z,-4.30
2022-12-03T22:42:28.104Z,-4.30
2022-12-03T22:44:31.781Z,-4.20
2022-12-03T22:46:33.979Z,-4.20
2022-12-03T22:48:36.496Z,-4.30
2022-12-03T22:50:43.298Z,-4.30
2022-12-03T22:52:45.134Z,-4.40
2022-12-03T22:54:46.925Z,-4.40
2022-12-03T22:56:48.880Z,-4.40
2022-12-03T22:59:06.077Z,-4.50
2022-12-03T23:01:10.388Z,-4.40
2022-12-03T23:03:12.527Z,-4.40
2022-12-03T23:05:14.702Z,-4.40
2022-12-03T23:07:16.616Z,-4.40
2022-12-03T23:09:18.519Z,-4.40
2022-12-03T23:11:20.634Z,-4.40
2022-12-03T23:13:22.552Z,-4.40
2022-12-03T23:15:24.434Z,-4.50
2022-12-03T23:17:26.181Z,-4.50
2022-12-03T23:19:28.314Z,-4.50
2022-12-03T23:21:34.437Z,-4.40
2022-12-03T23:23:36.511Z,-4.40
2022-12-03T23:25:38.644Z,-4.50
2022-12-03T23:27:40.770Z,-4.50
2022-12-03T23:29:42.659Z,-4.40
2022-12-03T23:31:44.712Z,-4.40
2022-12-03T23:33:47.286Z,-4.40
2022-12-03T23:35:49.421Z,-4.30
2022-12-03T23:37:51.411Z,-4.20
2022-12-03T23:39:53.604Z,-4.30
2022-12-03T23:41:55.785Z,-4.20
2022-12-03T23:43:58.124Z,-4.30
2022-12-03T23:46:05.661Z,-4.30
2022-12-03T23:48:07.703Z,-4.40
2022-12-03T23:50:11.146Z,-4.30
2022-12-03T23:52:13.133Z,-4.30
2022-12-03T23:54:15.075Z,-4.30
2022-12-03T23:56:19.413Z,-4.30
2022-12-03T23:58:21.280Z,-4.30
